Olean, New York
Current Conditions -  °F | °C
As of 11:55 AM on Friday 28 Nov 2014 (Local Time) from KOLE Reporting Station
Overcast Overcast  
Wind Chill: 10°   Ceiling: 2800
Heat Index: 21°   Visibility: 10mi
Dew Point: 12°   Wind: 10mph
Humidity: 68%   Direction: 290°WNW
Pressure: 30.15"   Gusts: 16mph
Location:  42.08°N, 78.43°W
Report Text: KOLE 281655Z AUTO 29009G14KT 10SM BKN028 OVC033 M06/M11 A3015 RMK AO2
Loading
Personal Weather Stations






























Interactive Weather Map New forecast layout! Learn more

10-Day Weather Forecast

Advertisements
Track Severe Weather on mobile